Terminal Aerodrome Forecast
Issued by NWS

Current Version | Previous Version | Graphics & Text | Print | Product List | Glossary On
Versions: 1 2 3 4 5 6 7 8 9 10 11 12 13 14 15 16 17 18 19 20 21 22 23 24 25 26 27 28 29 30 31 32 33 34
000
FTUS41 KPBZ 281442 AAB
TAFHLG
TAF AMD
KHLG 281442Z 2815/2912 17005KT 3SM SHRA BKN035
      TEMPO 2815/2817 5SM TSRA BKN015CB
     FM281700 VRB03KT P6SM -SHRA BKN050
      TEMPO 2817/2819 4SM -TSRA BKN050CB
     FM282300 VRB03KT P6SM VCSH BKN035
     FM290300 VRB03KT 5SM -SHRA OVC050=

USA.gov is the U.S. government's official web portal to all federal, state and local government web resources and services.